Terminal Aerodrome Forecast
Issued by NWS

Home | Current Version | Previous Version | Text Only | Print | Product List | Glossary On
Versions: 1 2 3 4 5 6 7 8 9 10 11 12 13 14
331
FTUS45 KTFX 212340
TAFHLN
TAF
KHLN 212340Z 2200/2224 24007KT P6SM SCT070 OVC130
     FM220600 22011KT P6SM VCSH SCT040 OVC070 WS020/25035KT PROB30
      2209/2213 26015G28KT -SHRA BKN035
     FM221300 24015G25KT P6SM VCSH SCT050 OVC080 WS020/25045KT
      PROB30 2213/2217 26022G35KT -SHRA BKN040
     FM221700 27025G40KT P6SM SCT050 BKN080=

USA.gov is the U.S. government's official web portal to all federal, state and local government web resources and services.